PILOTS ONLINE: 473    ATC ONLINE: 56

KRND

Randolph Air Force Base

Location

City Universal City
Country  United States
Latitude 29° 31' 46" N
Longitude 98° 16' 44" W
Elevation 761 ft
Type Large Airport

Map

Weather

METAR
2014/09/20 20:58
KRND 202058Z AUTO 05008KT 10SM SCT080 BKN150 BKN180 31/22 A2991 RMK AO2 SLP120 60000 T03050217 57025
TAF
2014/09/19 23:15
TAF KRND 1923/2023 13012KT 9000 -SHRA BKN020 BKN025 QNH2993INS 
      TEMPO 1923/1924 10012G20KT 6000 -TSRA BKN020CB 
      BECMG 2002/2003 11006KT 9999 NSW BKN020 QNH2995INS 
      BECMG 2007/2008 VRB06KT 8000 BR BKN008 QNH2998INS 
      BECMG 2017/2018 11012KT 9000 -SHRA BKN010 OVC030 QNH2992INS TX30/1923Z TN22/2012Z 
      AMD 192301 LAST NO 
      AMDS AFT 1923 NEXT 2109

Runways

14L/32R 8351 ft / 200 ft
14R/32L 8353 ft / 200 ft

Outbound flights

Callsign Flying to Pilot ATD/STD ETA Aircraft

Inbound flights

Callsign Flying from Pilot ATD ETA Aircraft